sensor_id;sensor_type;location;lat;lon;timestamp;pressure;altitude;pressure_sealevel;temperature;humidity
21817;BME280;13247;47.504;7.382;2023-12-04T00:01:59;97381.81;;;-4.46;100.00
21817;BME280;13247;47.504;7.382;2023-12-04T00:04:44;97386.41;;;-4.02;100.00
21817;BME280;13247;47.504;7.382;2023-12-04T00:07:28;97383.91;;;-3.99;100.00
21817;BME280;13247;47.504;7.382;2023-12-04T00:10:13;97377.63;;;-4.10;100.00
21817;BME280;13247;47.504;7.382;2023-12-04T00:12:57;97381.16;;;-4.06;100.00
21817;BME280;13247;47.504;7.382;2023-12-04T00:15:42;97374.69;;;-4.56;100.00
21817;BME280;13247;47.504;7.382;2023-12-04T00:18:26;97380.06;;;-4.78;100.00
21817;BME280;13247;47.504;7.382;2023-12-04T00:21:12;97382.63;;;-4.47;100.00
21817;BME280;13247;47.504;7.382;2023-12-04T00:23:57;97373.56;;;-4.36;100.00
21817;BME280;13247;47.504;7.382;2023-12-04T00:26:41;97375.44;;;-3.96;100.00
21817;BME280;13247;47.504;7.382;2023-12-04T00:29:26;97375.31;;;-4.01;100.00
21817;BME280;13247;47.504;7.382;2023-12-04T00:32:11;97375.03;;;-4.11;100.00
21817;BME280;13247;47.504;7.382;2023-12-04T00:34:56;97367.84;;;-4.57;100.00
21817;BME280;13247;47.504;7.382;2023-12-04T00:37:41;97373.34;;;-4.73;100.00
21817;BME280;13247;47.504;7.382;2023-12-04T00:40:25;97384.28;;;-4.49;100.00
21817;BME280;13247;47.504;7.382;2023-12-04T00:43:10;97378.25;;;-4.51;100.00
21817;BME280;13247;47.504;7.382;2023-12-04T00:45:55;97387.25;;;-4.34;100.00
21817;BME280;13247;47.504;7.382;2023-12-04T00:48:39;97379.91;;;-4.53;100.00
21817;BME280;13247;47.504;7.382;2023-12-04T00:51:24;97372.72;;;-4.66;100.00
21817;BME280;13247;47.504;7.382;2023-12-04T00:54:08;97357.75;;;-4.52;100.00
21817;BME280;13247;47.504;7.382;2023-12-04T00:56:53;97359.34;;;-4.56;100.00
21817;BME280;13247;47.504;7.382;2023-12-04T00:59:37;97356.53;;;-4.34;100.00
21817;BME280;13247;47.504;7.382;2023-12-04T01:02:22;97345.41;;;-4.36;100.00
21817;BME280;13247;47.504;7.382;2023-12-04T01:05:07;97336.22;;;-4.28;100.00
21817;BME280;13247;47.504;7.382;2023-12-04T01:07:52;97337.66;;;-4.05;100.00
21817;BME280;13247;47.504;7.382;2023-12-04T01:10:36;97329.06;;;-4.08;100.00
21817;BME280;13247;47.504;7.382;2023-12-04T01:13:22;97339.69;;;-4.26;100.00
21817;BME280;13247;47.504;7.382;2023-12-04T01:16:08;97337.41;;;-4.48;100.00
21817;BME280;13247;47.504;7.382;2023-12-04T01:18:53;97335.41;;;-4.27;100.00
21817;BME280;13247;47.504;7.382;2023-12-04T01:21:38;97332.00;;;-4.26;100.00
21817;BME280;13247;47.504;7.382;2023-12-04T01:24:22;97333.81;;;-4.22;100.00
21817;BME280;13247;47.504;7.382;2023-12-04T01:27:07;97335.50;;;-4.22;100.00
21817;BME280;13247;47.504;7.382;2023-12-04T01:29:51;97330.91;;;-4.01;100.00
21817;BME280;13247;47.504;7.382;2023-12-04T01:32:36;97338.94;;;-4.22;100.00
21817;BME280;13247;47.504;7.382;2023-12-04T01:35:20;97333.22;;;-4.12;100.00
21817;BME280;13247;47.504;7.382;2023-12-04T01:38:05;97327.38;;;-4.08;100.00
21817;BME280;13247;47.504;7.382;2023-12-04T01:40:49;97335.97;;;-4.04;100.00
21817;BME280;13247;47.504;7.382;2023-12-04T01:43:35;97337.34;;;-4.18;100.00
21817;BME280;13247;47.504;7.382;2023-12-04T01:46:20;97333.59;;;-3.97;100.00
21817;BME280;13247;47.504;7.382;2023-12-04T01:49:05;97332.63;;;-4.02;100.00
21817;BME280;13247;47.504;7.382;2023-12-04T01:51:49;97336.53;;;-4.16;100.00
21817;BME280;13247;47.504;7.382;2023-12-04T01:54:35;97332.66;;;-4.33;100.00
21817;BME280;13247;47.504;7.382;2023-12-04T01:57:20;97339.06;;;-4.17;100.00
21817;BME280;13247;47.504;7.382;2023-12-04T02:00:07;97329.03;;;-4.42;100.00
21817;BME280;13247;47.504;7.382;2023-12-04T02:02:56;97332.59;;;-4.36;100.00
21817;BME280;13247;47.504;7.382;2023-12-04T02:05:44;97336.75;;;-4.07;100.00
21817;BME280;13247;47.504;7.382;2023-12-04T02:08:29;97326.88;;;-4.27;100.00
21817;BME280;13247;47.504;7.382;2023-12-04T02:11:14;97338.19;;;-4.18;100.00
21817;BME280;13247;47.504;7.382;2023-12-04T02:13:59;97330.41;;;-3.88;100.00
21817;BME280;13247;47.504;7.382;2023-12-04T02:16:45;97321.50;;;-3.68;100.00
21817;BME280;13247;47.504;7.382;2023-12-04T02:19:30;97315.78;;;-3.56;100.00
21817;BME280;13247;47.504;7.382;2023-12-04T02:22:15;97315.72;;;-3.59;100.00
21817;BME280;13247;47.504;7.382;2023-12-04T02:25:01;97305.47;;;-3.59;100.00
21817;BME280;13247;47.504;7.382;2023-12-04T02:27:54;97304.09;;;-3.44;100.00
21817;BME280;13247;47.504;7.382;2023-12-04T02:30:43;97295.22;;;-3.59;100.00
21817;BME280;13247;47.504;7.382;2023-12-04T02:33:28;97288.16;;;-3.69;100.00
21817;BME280;13247;47.504;7.382;2023-12-04T02:36:14;97281.81;;;-3.85;100.00
21817;BME280;13247;47.504;7.382;2023-12-04T02:38:59;97274.38;;;-3.74;100.00
21817;BME280;13247;47.504;7.382;2023-12-04T02:41:44;97270.72;;;-3.85;100.00
21817;BME280;13247;47.504;7.382;2023-12-04T02:44:29;97282.09;;;-4.09;100.00
21817;BME280;13247;47.504;7.382;2023-12-04T02:47:14;97269.78;;;-4.25;100.00
21817;BME280;13247;47.504;7.382;2023-12-04T02:49:59;97266.00;;;-4.05;100.00
21817;BME280;13247;47.504;7.382;2023-12-04T02:52:44;97254.28;;;-3.95;100.00
21817;BME280;13247;47.504;7.382;2023-12-04T02:55:29;97258.31;;;-4.05;100.00
21817;BME280;13247;47.504;7.382;2023-12-04T02:58:13;97253.28;;;-4.02;100.00
21817;BME280;13247;47.504;7.382;2023-12-04T03:00:58;97249.69;;;-3.71;100.00
21817;BME280;13247;47.504;7.382;2023-12-04T03:03:42;97253.06;;;-3.33;100.00
21817;BME280;13247;47.504;7.382;2023-12-04T03:06:27;97252.72;;;-3.08;100.00
21817;BME280;13247;47.504;7.382;2023-12-04T03:09:11;97247.69;;;-3.03;100.00
21817;BME280;13247;47.504;7.382;2023-12-04T03:11:56;97245.09;;;-3.06;100.00
21817;BME280;13247;47.504;7.382;2023-12-04T03:14:41;97233.31;;;-2.97;100.00
21817;BME280;13247;47.504;7.382;2023-12-04T03:17:25;97229.72;;;-3.05;100.00
21817;BME280;13247;47.504;7.382;2023-12-04T03:20:10;97227.16;;;-3.05;100.00
21817;BME280;13247;47.504;7.382;2023-12-04T03:22:55;97218.22;;;-2.80;100.00
21817;BME280;13247;47.504;7.382;2023-12-04T03:25:40;97220.56;;;-2.94;100.00
21817;BME280;13247;47.504;7.382;2023-12-04T03:28:24;97209.44;;;-2.93;100.00
21817;BME280;13247;47.504;7.382;2023-12-04T03:31:09;97198.28;;;-2.96;100.00
21817;BME280;13247;47.504;7.382;2023-12-04T03:33:54;97199.19;;;-2.91;100.00
21817;BME280;13247;47.504;7.382;2023-12-04T03:36:38;97193.94;;;-2.99;100.00
21817;BME280;13247;47.504;7.382;2023-12-04T03:39:23;97198.38;;;-2.90;100.00
21817;BME280;13247;47.504;7.382;2023-12-04T03:42:08;97200.13;;;-2.88;100.00
21817;BME280;13247;47.504;7.382;2023-12-04T03:44:52;97199.34;;;-2.84;100.00
21817;BME280;13247;47.504;7.382;2023-12-04T03:47:37;97179.75;;;-2.80;100.00
21817;BME280;13247;47.504;7.382;2023-12-04T03:50:22;97187.22;;;-2.94;100.00
21817;BME280;13247;47.504;7.382;2023-12-04T03:53:07;97192.34;;;-2.94;100.00
21817;BME280;13247;47.504;7.382;2023-12-04T03:55:52;97190.59;;;-2.95;100.00
21817;BME280;13247;47.504;7.382;2023-12-04T03:58:37;97194.06;;;-2.91;100.00
21817;BME280;13247;47.504;7.382;2023-12-04T04:01:23;97181.34;;;-2.87;100.00
21817;BME280;13247;47.504;7.382;2023-12-04T04:04:08;97190.94;;;-2.77;100.00
21817;BME280;13247;47.504;7.382;2023-12-04T04:06:53;97193.34;;;-2.86;100.00
21817;BME280;13247;47.504;7.382;2023-12-04T04:09:37;97183.28;;;-2.72;100.00
21817;BME280;13247;47.504;7.382;2023-12-04T04:12:22;97184.28;;;-2.66;100.00
21817;BME280;13247;47.504;7.382;2023-12-04T04:15:07;97182.47;;;-2.73;100.00
21817;BME280;13247;47.504;7.382;2023-12-04T04:17:52;97175.47;;;-2.81;100.00
21817;BME280;13247;47.504;7.382;2023-12-04T04:20:37;97173.88;;;-2.75;100.00
21817;BME280;13247;47.504;7.382;2023-12-04T04:23:24;97173.09;;;-2.71;100.00
21817;BME280;13247;47.504;7.382;2023-12-04T04:26:09;97170.53;;;-2.71;100.00
21817;BME280;13247;47.504;7.382;2023-12-04T04:28:54;97162.56;;;-2.86;100.00
21817;BME280;13247;47.504;7.382;2023-12-04T04:31:38;97165.38;;;-2.71;100.00
21817;BME280;13247;47.504;7.382;2023-12-04T04:34:23;97153.28;;;-2.78;100.00
21817;BME280;13247;47.504;7.382;2023-12-04T04:37:07;97146.47;;;-2.76;100.00
21817;BME280;13247;47.504;7.382;2023-12-04T04:39:52;97143.91;;;-2.76;100.00
21817;BME280;13247;47.504;7.382;2023-12-04T04:42:36;97147.50;;;-2.66;100.00
21817;BME280;13247;47.504;7.382;2023-12-04T04:45:21;97140.81;;;-2.57;100.00
21817;BME280;13247;47.504;7.382;2023-12-04T04:48:05;97136.38;;;-2.67;100.00
21817;BME280;13247;47.504;7.382;2023-12-04T04:50:50;97140.09;;;-2.48;100.00
21817;BME280;13247;47.504;7.382;2023-12-04T04:53:35;97142.75;;;-2.42;100.00
21817;BME280;13247;47.504;7.382;2023-12-04T04:56:19;97132.22;;;-2.59;100.00
21817;BME280;13247;47.504;7.382;2023-12-04T04:59:04;97128.06;;;-2.51;100.00
21817;BME280;13247;47.504;7.382;2023-12-04T05:01:48;97128.97;;;-2.47;100.00
21817;BME280;13247;47.504;7.382;2023-12-04T05:04:33;97138.56;;;-2.37;100.00
21817;BME280;13247;47.504;7.382;2023-12-04T05:07:18;97130.72;;;-2.46;100.00
21817;BME280;13247;47.504;7.382;2023-12-04T05:10:02;97126.41;;;-2.49;100.00
21817;BME280;13247;47.504;7.382;2023-12-04T05:12:47;97125.66;;;-2.40;100.00
21817;BME280;13247;47.504;7.382;2023-12-04T05:15:32;97121.97;;;-2.57;100.00
21817;BME280;13247;47.504;7.382;2023-12-04T05:18:16;97120.84;;;-2.19;100.00
21817;BME280;13247;47.504;7.382;2023-12-04T05:21:00;97109.41;;;-2.41;100.00
21817;BME280;13247;47.504;7.382;2023-12-04T05:23:45;97102.72;;;-2.31;100.00
21817;BME280;13247;47.504;7.382;2023-12-04T05:26:30;97104.47;;;-2.27;100.00
21817;BME280;13247;47.504;7.382;2023-12-04T05:29:14;97113.22;;;-2.14;100.00
21817;BME280;13247;47.504;7.382;2023-12-04T05:31:59;97116.59;;;-2.17;100.00
21817;BME280;13247;47.504;7.382;2023-12-04T05:34:43;97109.50;;;-2.34;100.00
21817;BME280;13247;47.504;7.382;2023-12-04T05:37:28;97104.34;;;-2.36;100.00
21817;BME280;13247;47.504;7.382;2023-12-04T05:40:12;97108.16;;;-2.08;100.00
21817;BME280;13247;47.504;7.382;2023-12-04T05:42:57;97108.00;;;-2.20;100.00
21817;BME280;13247;47.504;7.382;2023-12-04T05:45:42;97100.00;;;-2.42;100.00
21817;BME280;13247;47.504;7.382;2023-12-04T05:48:26;97117.16;;;-2.39;100.00
21817;BME280;13247;47.504;7.382;2023-12-04T05:51:11;97111.22;;;-2.33;100.00
21817;BME280;13247;47.504;7.382;2023-12-04T05:53:56;97100.97;;;-2.33;100.00
21817;BME280;13247;47.504;7.382;2023-12-04T05:56:40;97097.72;;;-2.22;100.00
21817;BME280;13247;47.504;7.382;2023-12-04T05:59:25;97090.09;;;-2.14;100.00
21817;BME280;13247;47.504;7.382;2023-12-04T06:02:10;97085.31;;;-1.89;100.00
21817;BME280;13247;47.504;7.382;2023-12-04T06:04:54;97098.09;;;-1.95;100.00
21817;BME280;13247;47.504;7.382;2023-12-04T06:07:39;97087.53;;;-2.16;100.00
21817;BME280;13247;47.504;7.382;2023-12-04T06:10:23;97081.38;;;-2.28;100.00
21817;BME280;13247;47.504;7.382;2023-12-04T06:13:08;97085.38;;;-1.84;100.00
21817;BME280;13247;47.504;7.382;2023-12-04T06:15:52;97110.13;;;-1.91;100.00
21817;BME280;13247;47.504;7.382;2023-12-04T06:18:37;97083.44;;;-2.00;100.00
21817;BME280;13247;47.504;7.382;2023-12-04T06:21:22;97059.09;;;-2.28;100.00
21817;BME280;13247;47.504;7.382;2023-12-04T06:24:07;97086.72;;;-2.13;100.00
21817;BME280;13247;47.504;7.382;2023-12-04T06:26:53;97077.47;;;-1.99;100.00
21817;BME280;13247;47.504;7.382;2023-12-04T06:29:38;97075.59;;;-2.12;100.00
21817;BME280;13247;47.504;7.382;2023-12-04T06:32:23;97087.69;;;-2.02;100.00
21817;BME280;13247;47.504;7.382;2023-12-04T06:35:09;97072.41;;;-1.93;100.00
21817;BME280;13247;47.504;7.382;2023-12-04T06:37:54;97067.31;;;-1.90;100.00
21817;BME280;13247;47.504;7.382;2023-12-04T06:40:40;97051.22;;;-1.76;100.00
21817;BME280;13247;47.504;7.382;2023-12-04T06:43:25;97060.56;;;-1.81;100.00
21817;BME280;13247;47.504;7.382;2023-12-04T06:46:10;97050.03;;;-2.00;100.00
21817;BME280;13247;47.504;7.382;2023-12-04T06:49:00;97067.88;;;-2.11;100.00
21817;BME280;13247;47.504;7.382;2023-12-04T06:51:45;97030.41;;;-1.97;100.00
21817;BME280;13247;47.504;7.382;2023-12-04T06:54:30;96985.38;;;-2.37;100.00
21817;BME280;13247;47.504;7.382;2023-12-04T06:57:15;97031.19;;;-2.02;100.00
21817;BME280;13247;47.504;7.382;2023-12-04T07:00:00;97014.22;;;-1.90;100.00
21817;BME280;13247;47.504;7.382;2023-12-04T07:02:45;96999.66;;;-1.89;100.00
21817;BME280;13247;47.504;7.382;2023-12-04T07:05:29;97018.63;;;-1.80;100.00
21817;BME280;13247;47.504;7.382;2023-12-04T07:08:14;97004.94;;;-1.77;100.00
21817;BME280;13247;47.504;7.382;2023-12-04T07:10:59;97004.09;;;-1.76;100.00
21817;BME280;13247;47.504;7.382;2023-12-04T07:13:44;97005.88;;;-1.71;100.00
21817;BME280;13247;47.504;7.382;2023-12-04T07:16:28;97008.38;;;-1.78;100.00
21817;BME280;13247;47.504;7.382;2023-12-04T07:19:13;97001.41;;;-1.88;100.00
21817;BME280;13247;47.504;7.382;2023-12-04T07:21:59;96987.97;;;-1.62;100.00
21817;BME280;13247;47.504;7.382;2023-12-04T07:24:43;97016.19;;;-1.66;100.00
21817;BME280;13247;47.504;7.382;2023-12-04T07:27:28;96999.09;;;-1.63;100.00
21817;BME280;13247;47.504;7.382;2023-12-04T07:30:13;96997.31;;;-1.70;100.00
21817;BME280;13247;47.504;7.382;2023-12-04T07:32:58;96981.91;;;-1.67;100.00
21817;BME280;13247;47.504;7.382;2023-12-04T07:35:43;97000.06;;;-1.54;100.00
21817;BME280;13247;47.504;7.382;2023-12-04T07:38:27;97004.34;;;-1.53;100.00
21817;BME280;13247;47.504;7.382;2023-12-04T07:41:12;97030.81;;;-1.62;100.00
21817;BME280;13247;47.504;7.382;2023-12-04T07:43:58;97045.50;;;-1.49;100.00
21817;BME280;13247;47.504;7.382;2023-12-04T07:46:42;97034.06;;;-1.75;100.00
21817;BME280;13247;47.504;7.382;2023-12-04T07:49:27;97017.25;;;-1.47;100.00
21817;BME280;13247;47.504;7.382;2023-12-04T07:52:12;96991.44;;;-1.60;100.00
21817;BME280;13247;47.504;7.382;2023-12-04T07:54:57;96958.06;;;-1.55;100.00
21817;BME280;13247;47.504;7.382;2023-12-04T07:57:41;96989.63;;;-1.71;100.00
21817;BME280;13247;47.504;7.382;2023-12-04T08:00:26;96995.63;;;-1.66;100.00
21817;BME280;13247;47.504;7.382;2023-12-04T08:03:10;96983.88;;;-1.41;100.00
21817;BME280;13247;47.504;7.382;2023-12-04T08:05:55;96995.13;;;-1.30;100.00
21817;BME280;13247;47.504;7.382;2023-12-04T08:08:40;96985.75;;;-1.22;100.00
21817;BME280;13247;47.504;7.382;2023-12-04T08:11:24;97006.19;;;-1.39;100.00
21817;BME280;13247;47.504;7.382;2023-12-04T08:14:09;96959.03;;;-1.42;100.00
21817;BME280;13247;47.504;7.382;2023-12-04T08:16:54;96972.75;;;-1.40;100.00
21817;BME280;13247;47.504;7.382;2023-12-04T08:19:38;97007.19;;;-1.23;100.00
21817;BME280;13247;47.504;7.382;2023-12-04T08:22:23;97011.38;;;-1.33;100.00
21817;BME280;13247;47.504;7.382;2023-12-04T08:25:08;96999.50;;;-1.22;100.00
21817;BME280;13247;47.504;7.382;2023-12-04T08:27:54;97008.94;;;-1.18;100.00
21817;BME280;13247;47.504;7.382;2023-12-04T08:30:39;96975.56;;;-1.13;100.00
21817;BME280;13247;47.504;7.382;2023-12-04T08:33:24;97006.38;;;-1.18;100.00
21817;BME280;13247;47.504;7.382;2023-12-04T08:36:09;97021.25;;;-0.82;100.00
21817;BME280;13247;47.504;7.382;2023-12-04T08:38:54;97024.84;;;-0.62;100.00
21817;BME280;13247;47.504;7.382;2023-12-04T08:41:39;97042.78;;;-0.69;100.00
21817;BME280;13247;47.504;7.382;2023-12-04T08:44:23;97040.03;;;-0.95;100.00
21817;BME280;13247;47.504;7.382;2023-12-04T08:47:08;97022.94;;;-0.86;100.00
21817;BME280;13247;47.504;7.382;2023-12-04T08:49:53;97005.09;;;-0.64;100.00
21817;BME280;13247;47.504;7.382;2023-12-04T08:52:38;97021.41;;;-0.61;100.00
21817;BME280;13247;47.504;7.382;2023-12-04T08:55:25;97011.91;;;-0.69;100.00
21817;BME280;13247;47.504;7.382;2023-12-04T08:58:11;97013.84;;;-0.37;100.00
21817;BME280;13247;47.504;7.382;2023-12-04T09:00:55;97006.94;;;-0.38;100.00
21817;BME280;13247;47.504;7.382;2023-12-04T09:03:40;97000.94;;;-0.41;100.00
21817;BME280;13247;47.504;7.382;2023-12-04T09:06:24;97002.44;;;-0.73;100.00
21817;BME280;13247;47.504;7.382;2023-12-04T09:09:09;96999.19;;;-0.47;100.00
21817;BME280;13247;47.504;7.382;2023-12-04T09:11:56;96988.03;;;-0.44;100.00
21817;BME280;13247;47.504;7.382;2023-12-04T09:14:41;96990.53;;;-0.55;100.00
21817;BME280;13247;47.504;7.382;2023-12-04T09:17:25;97017.28;;;-0.33;100.00
21817;BME280;13247;47.504;7.382;2023-12-04T09:20:10;97007.88;;;-0.27;100.00
21817;BME280;13247;47.504;7.382;2023-12-04T09:22:55;97025.09;;;-0.20;100.00
21817;BME280;13247;47.504;7.382;2023-12-04T09:25:39;97028.53;;;-0.22;100.00
21817;BME280;13247;47.504;7.382;2023-12-04T09:28:24;97027.75;;;-0.11;100.00
21817;BME280;13247;47.504;7.382;2023-12-04T09:31:11;97032.81;;;-0.24;100.00
21817;BME280;13247;47.504;7.382;2023-12-04T09:33:56;97039.50;;;-0.50;100.00
21817;BME280;13247;47.504;7.382;2023-12-04T09:36:40;97024.81;;;-0.65;100.00
21817;BME280;13247;47.504;7.382;2023-12-04T09:39:25;97031.03;;;-0.31;100.00
21817;BME280;13247;47.504;7.382;2023-12-04T09:42:10;97019.00;;;-0.38;100.00
21817;BME280;13247;47.504;7.382;2023-12-04T09:44:55;97007.78;;;-0.42;100.00
21817;BME280;13247;47.504;7.382;2023-12-04T09:47:40;96990.75;;;-0.13;100.00
21817;BME280;13247;47.504;7.382;2023-12-04T09:50:25;96992.53;;;-0.06;100.00
21817;BME280;13247;47.504;7.382;2023-12-04T09:53:13;96969.38;;;0.05;100.00
21817;BME280;13247;47.504;7.382;2023-12-04T09:56:00;96969.44;;;0.25;100.00
21817;BME280;13247;47.504;7.382;2023-12-04T09:58:52;96962.53;;;0.10;100.00
21817;BME280;13247;47.504;7.382;2023-12-04T10:01:37;96965.19;;;0.43;100.00
21817;BME280;13247;47.504;7.382;2023-12-04T10:04:22;96949.72;;;0.42;100.00
21817;BME280;13247;47.504;7.382;2023-12-04T10:07:06;96939.44;;;0.57;100.00
21817;BME280;13247;47.504;7.382;2023-12-04T10:09:51;96924.78;;;0.63;100.00
21817;BME280;13247;47.504;7.382;2023-12-04T10:12:36;96913.59;;;0.55;100.00
21817;BME280;13247;47.504;7.382;2023-12-04T10:15:21;96903.31;;;0.36;100.00
21817;BME280;13247;47.504;7.382;2023-12-04T10:18:06;96891.22;;;0.20;100.00
21817;BME280;13247;47.504;7.382;2023-12-04T10:20:54;96889.53;;;0.59;100.00
21817;BME280;13247;47.504;7.382;2023-12-04T10:23:43;96880.91;;;0.21;100.00
21817;BME280;13247;47.504;7.382;2023-12-04T10:26:28;96883.53;;;0.27;100.00
21817;BME280;13247;47.504;7.382;2023-12-04T10:29:13;96882.63;;;0.04;100.00
21817;BME280;13247;47.504;7.382;2023-12-04T10:32:01;96882.59;;;-0.02;100.00
21817;BME280;13247;47.504;7.382;2023-12-04T10:34:45;96890.28;;;-0.14;100.00
21817;BME280;13247;47.504;7.382;2023-12-04T10:37:30;96898.91;;;-0.11;100.00
21817;BME280;13247;47.504;7.382;2023-12-04T10:40:24;96888.59;;;-0.12;100.00
21817;BME280;13247;47.504;7.382;2023-12-04T10:43:15;96865.47;;;0.17;100.00
21817;BME280;13247;47.504;7.382;2023-12-04T10:46:00;96862.88;;;0.68;100.00
21817;BME280;13247;47.504;7.382;2023-12-04T10:48:45;96852.59;;;0.69;100.00
21817;BME280;13247;47.504;7.382;2023-12-04T10:51:32;96850.00;;;0.75;100.00
21817;BME280;13247;47.504;7.382;2023-12-04T10:54:18;96865.47;;;0.53;100.00
21817;BME280;13247;47.504;7.382;2023-12-04T10:57:04;96862.00;;;0.93;100.00
21817;BME280;13247;47.504;7.382;2023-12-04T10:59:56;96849.06;;;1.07;100.00
21817;BME280;13247;47.504;7.382;2023-12-04T11:02:43;96836.09;;;1.31;100.00
21817;BME280;13247;47.504;7.382;2023-12-04T11:05:33;96829.16;;;1.40;100.00
21817;BME280;13247;47.504;7.382;2023-12-04T11:08:21;96823.09;;;1.49;100.00
21817;BME280;13247;47.504;7.382;2023-12-04T11:11:23;96819.75;;;1.29;100.00
21817;BME280;13247;47.504;7.382;2023-12-04T11:14:14;96824.97;;;1.05;100.00
21817;BME280;13247;47.504;7.382;2023-12-04T11:17:05;96824.03;;;1.33;100.00
21817;BME280;13247;47.504;7.382;2023-12-04T11:20:02;96808.53;;;1.31;100.00
21817;BME280;13247;47.504;7.382;2023-12-04T11:22:52;96808.50;;;1.40;100.00
21817;BME280;13247;47.504;7.382;2023-12-04T11:25:38;96808.41;;;1.60;100.00
21817;BME280;13247;47.504;7.382;2023-12-04T11:28:24;96791.13;;;1.68;100.00
21817;BME280;13247;47.504;7.382;2023-12-04T11:31:09;96785.88;;;1.83;100.00
21817;BME280;13247;47.504;7.382;2023-12-04T11:34:02;96772.88;;;1.92;100.00
21817;BME280;13247;47.504;7.382;2023-12-04T11:36:47;96769.34;;;2.07;100.00
21817;BME280;13247;47.504;7.382;2023-12-04T11:39:34;96754.06;;;1.75;100.00
21817;BME280;13247;47.504;7.382;2023-12-04T11:42:23;96753.06;;;1.96;100.00
21817;BME280;13247;47.504;7.382;2023-12-04T11:45:09;96755.44;;;2.18;100.00
21817;BME280;13247;47.504;7.382;2023-12-04T11:47:57;96750.59;;;1.79;100.00
21817;BME280;13247;47.504;7.382;2023-12-04T11:50:43;96751.25;;;2.07;100.00
21817;BME280;13247;47.504;7.382;2023-12-04T11:53:29;96746.78;;;2.25;100.00
21817;BME280;13247;47.504;7.382;2023-12-04T11:56:14;96750.31;;;2.14;100.00
21817;BME280;13247;47.504;7.382;2023-12-04T11:59:06;96758.00;;;2.26;100.00
21817;BME280;13247;47.504;7.382;2023-12-04T12:01:55;96751.84;;;2.34;100.00
21817;BME280;13247;47.504;7.382;2023-12-04T12:04:41;96747.31;;;2.59;100.00
21817;BME280;13247;47.504;7.382;2023-12-04T12:07:25;96732.63;;;2.63;100.00
21817;BME280;13247;47.504;7.382;2023-12-04T12:10:11;96740.47;;;2.54;100.00
21817;BME280;13247;47.504;7.382;2023-12-04T12:12:57;96738.72;;;2.56;100.00
21817;BME280;13247;47.504;7.382;2023-12-04T12:15:43;96736.19;;;2.50;100.00
21817;BME280;13247;47.504;7.382;2023-12-04T12:18:31;96720.44;;;2.74;100.00
21817;BME280;13247;47.504;7.382;2023-12-04T12:21:19;96705.06;;;2.56;100.00
21817;BME280;13247;47.504;7.382;2023-12-04T12:24:06;96706.81;;;2.54;100.00
21817;BME280;13247;47.504;7.382;2023-12-04T12:26:52;96703.38;;;2.55;100.00
21817;BME280;13247;47.504;7.382;2023-12-04T12:29:38;96700.78;;;2.55;100.00
21817;BME280;13247;47.504;7.382;2023-12-04T12:32:23;96709.44;;;2.52;100.00
21817;BME280;13247;47.504;7.382;2023-12-04T12:35:07;96693.72;;;2.69;100.00
21817;BME280;13247;47.504;7.382;2023-12-04T12:37:53;96692.78;;;2.77;100.00
21817;BME280;13247;47.504;7.382;2023-12-04T12:40:38;96691.97;;;2.71;100.00
21817;BME280;13247;47.504;7.382;2023-12-04T12:43:22;96702.25;;;2.78;100.00
21817;BME280;13247;47.504;7.382;2023-12-04T12:46:08;96696.28;;;2.73;100.00
21817;BME280;13247;47.504;7.382;2023-12-04T12:48:53;96692.66;;;2.88;100.00
21817;BME280;13247;47.504;7.382;2023-12-04T12:51:40;96698.25;;;3.22;100.00
21817;BME280;13247;47.504;7.382;2023-12-04T12:54:25;96692.97;;;3.31;100.00
21817;BME280;13247;47.504;7.382;2023-12-04T12:57:11;96685.91;;;3.40;100.00
21817;BME280;13247;47.504;7.382;2023-12-04T12:59:56;96675.06;;;3.14;100.00
21817;BME280;13247;47.504;7.382;2023-12-04T13:02:41;96675.41;;;2.87;100.00
21817;BME280;13247;47.504;7.382;2023-12-04T13:05:25;96678.72;;;2.96;100.00
21817;BME280;13247;47.504;7.382;2023-12-04T13:08:10;96675.25;;;2.99;100.00
21817;BME280;13247;47.504;7.382;2023-12-04T13:10:59;96670.72;;;3.16;100.00
21817;BME280;13247;47.504;7.382;2023-12-04T13:13:44;96662.09;;;3.15;100.00
21817;BME280;13247;47.504;7.382;2023-12-04T13:16:29;96665.88;;;2.87;100.00
21817;BME280;13247;47.504;7.382;2023-12-04T13:19:14;96658.25;;;2.77;100.00
21817;BME280;13247;47.504;7.382;2023-12-04T13:22:01;96663.16;;;2.98;100.00
21817;BME280;13247;47.504;7.382;2023-12-04T13:24:46;96666.03;;;2.75;100.00
21817;BME280;13247;47.504;7.382;2023-12-04T13:27:31;96666.06;;;2.74;100.00
21817;BME280;13247;47.504;7.382;2023-12-04T13:30:15;96663.25;;;2.93;100.00
21817;BME280;13247;47.504;7.382;2023-12-04T13:33:00;96657.41;;;2.75;100.00
21817;BME280;13247;47.504;7.382;2023-12-04T13:35:45;96658.13;;;2.89;100.00
21817;BME280;13247;47.504;7.382;2023-12-04T13:38:29;96654.91;;;2.69;100.00
21817;BME280;13247;47.504;7.382;2023-12-04T13:41:15;96660.91;;;2.74;100.00
21817;BME280;13247;47.504;7.382;2023-12-04T13:44:18;96650.66;;;2.65;100.00
21817;BME280;13247;47.504;7.382;2023-12-04T13:47:03;96655.41;;;2.22;100.00
21817;BME280;13247;47.504;7.382;2023-12-04T13:49:48;96656.31;;;2.18;100.00
21817;BME280;13247;47.504;7.382;2023-12-04T13:52:33;96651.94;;;2.27;100.00
21817;BME280;13247;47.504;7.382;2023-12-04T13:55:18;96642.31;;;2.40;100.00
21817;BME280;13247;47.504;7.382;2023-12-04T13:58:18;96634.91;;;2.05;100.00
21817;BME280;13247;47.504;7.382;2023-12-04T14:01:24;96621.34;;;1.81;100.00
21817;BME280;13247;47.504;7.382;2023-12-04T14:04:11;96626.97;;;2.22;100.00
21817;BME280;13247;47.504;7.382;2023-12-04T14:06:56;96607.50;;;1.86;100.00
21817;BME280;13247;47.504;7.382;2023-12-04T14:09:41;96604.69;;;2.12;100.00
21817;BME280;13247;47.504;7.382;2023-12-04T14:12:26;96586.53;;;2.16;100.00
21817;BME280;13247;47.504;7.382;2023-12-04T14:15:11;96586.38;;;2.30;100.00
21817;BME280;13247;47.504;7.382;2023-12-04T14:17:55;96581.28;;;2.25;100.00
21817;BME280;13247;47.504;7.382;2023-12-04T14:20:40;96575.84;;;2.47;100.00
21817;BME280;13247;47.504;7.382;2023-12-04T14:23:25;96568.25;;;2.31;100.00
21817;BME280;13247;47.504;7.382;2023-12-04T14:26:10;96562.09;;;2.42;100.00
21817;BME280;13247;47.504;7.382;2023-12-04T14:28:55;96559.63;;;2.34;100.00